createdAt,value
2023-02-01T00:01:17.234Z,1.60
2023-02-01T00:03:50.606Z,1.40
2023-02-01T00:06:23.510Z,1.02
2023-02-01T00:09:04.203Z,2.20
2023-02-01T00:11:35.972Z,1.67
2023-02-01T00:14:05.326Z,2.63
2023-02-01T00:16:33.684Z,1.92
2023-02-01T00:19:11.833Z,2.30
2023-02-01T00:21:39.280Z,2.83
2023-02-01T00:24:06.964Z,2.53
2023-02-01T00:26:42.926Z,2.25
2023-02-01T00:29:18.823Z,1.83
2023-02-01T00:31:47.772Z,1.95
2023-02-01T00:34:16.808Z,2.40
2023-02-01T00:36:44.752Z,1.65
2023-02-01T00:39:12.252Z,1.60
2023-02-01T00:41:42.100Z,1.58
2023-02-01T00:44:09.399Z,1.95
2023-02-01T00:46:36.535Z,1.70
2023-02-01T00:49:04.097Z,1.85
2023-02-01T00:51:31.465Z,2.35
2023-02-01T00:53:59.581Z,1.77
2023-02-01T00:56:30.985Z,2.47
2023-02-01T00:59:00.800Z,2.58
2023-02-01T01:01:30.896Z,2.30
2023-02-01T01:04:01.533Z,2.78
2023-02-01T01:06:33.888Z,2.20
2023-02-01T01:09:05.661Z,2.65
2023-02-01T01:11:37.995Z,2.30
2023-02-01T01:14:08.293Z,2.05
2023-02-01T01:16:39.109Z,2.72
2023-02-01T01:19:13.039Z,2.42
2023-02-01T01:21:40.548Z,2.80
2023-02-01T01:24:08.024Z,2.13
2023-02-01T01:26:35.602Z,2.10
2023-02-01T01:29:02.628Z,2.95
2023-02-01T01:31:29.882Z,2.97
2023-02-01T01:33:59.820Z,3.45
2023-02-01T01:36:28.923Z,2.20
2023-02-01T01:38:56.735Z,2.78
2023-02-01T01:41:27.741Z,2.42
2023-02-01T01:43:57.797Z,3.00
2023-02-01T01:46:32.325Z,2.38
2023-02-01T01:49:06.571Z,2.58
2023-02-01T01:51:38.837Z,2.15
2023-02-01T01:54:22.514Z,2.33
2023-02-01T01:56:55.162Z,3.25
2023-02-01T01:59:25.043Z,2.20
2023-02-01T02:01:53.392Z,1.95
2023-02-01T02:04:21.110Z,2.40
2023-02-01T02:07:20.553Z,2.17
2023-02-01T02:10:00.205Z,2.88
2023-02-01T02:12:29.410Z,2.70
2023-02-01T02:14:57.301Z,2.42
2023-02-01T02:17:44.906Z,1.80
2023-02-01T02:20:45.556Z,2.22
2023-02-01T02:23:46.281Z,2.45
2023-02-01T02:26:22.399Z,1.88
2023-02-01T02:28:49.865Z,1.90
2023-02-01T02:31:31.335Z,2.47
2023-02-01T02:34:26.736Z,1.95
2023-02-01T02:37:03.596Z,3.05
2023-02-01T02:39:45.745Z,1.75
2023-02-01T02:42:42.733Z,2.97
2023-02-01T02:45:44.863Z,3.22
2023-02-01T02:48:47.294Z,2.20
2023-02-01T02:51:37.168Z,2.17
2023-02-01T02:54:38.692Z,2.80
2023-02-01T02:57:28.072Z,2.55
2023-02-01T03:00:18.932Z,1.08
2023-02-01T03:03:07.137Z,2.88
2023-02-01T03:05:36.117Z,2.65
2023-02-01T03:08:04.965Z,2.50
2023-02-01T03:10:50.132Z,2.38
2023-02-01T03:13:44.015Z,2.85
2023-02-01T03:16:41.149Z,2.63
2023-02-01T03:19:30.833Z,2.35
2023-02-01T03:22:05.764Z,2.88
2023-02-01T03:25:22.379Z,2.85
2023-02-01T03:27:55.933Z,2.78
2023-02-01T03:30:43.064Z,2.83
2023-02-01T03:33:22.644Z,2.50
2023-02-01T03:35:56.831Z,3.30
2023-02-01T03:38:24.622Z,2.80
2023-02-01T03:41:14.497Z,2.80
2023-02-01T03:44:04.419Z,2.78
2023-02-01T03:46:39.986Z,2.42
2023-02-01T03:49:11.003Z,2.05
2023-02-01T03:51:43.951Z,2.85
2023-02-01T03:54:14.529Z,3.03
2023-02-01T03:56:45.321Z,2.70
2023-02-01T03:59:14.093Z,2.63
2023-02-01T04:01:41.924Z,1.95
2023-02-01T04:04:10.449Z,2.83
2023-02-01T04:06:40.689Z,2.00
2023-02-01T04:09:15.315Z,2.15
2023-02-01T04:11:53.940Z,2.55
2023-02-01T04:14:24.425Z,2.28
2023-02-01T04:16:51.954Z,1.77
2023-02-01T04:19:19.669Z,1.75
2023-02-01T04:21:49.493Z,2.50
2023-02-01T04:24:19.497Z,1.90
2023-02-01T04:26:46.675Z,1.17
2023-02-01T04:29:14.127Z,1.23
2023-02-01T04:31:43.588Z,1.55
2023-02-01T04:34:11.254Z,1.33
2023-02-01T04:36:41.013Z,1.27
2023-02-01T04:39:12.735Z,0.90
2023-02-01T04:41:39.867Z,1.10
2023-02-01T04:44:07.938Z,1.02
2023-02-01T04:46:35.539Z,0.85
2023-02-01T04:49:02.666Z,1.02
2023-02-01T04:51:31.309Z,1.60
2023-02-01T04:54:06.006Z,1.13
2023-02-01T04:56:33.666Z,0.85
2023-02-01T04:59:00.601Z,1.90
2023-02-01T05:01:27.738Z,1.33
2023-02-01T05:03:55.261Z,6.05
2023-02-01T05:06:22.502Z,5.00
2023-02-01T05:08:49.846Z,1.40
2023-02-01T05:11:55.298Z,1.15
2023-02-01T05:14:22.393Z,1.48
2023-02-01T05:16:49.430Z,2.00
2023-02-01T05:19:16.964Z,0.95
2023-02-01T05:21:44.001Z,0.80
2023-02-01T05:24:11.623Z,1.35
2023-02-01T05:26:38.796Z,1.58
2023-02-01T05:29:06.259Z,1.33
2023-02-01T05:31:33.632Z,1.52
2023-02-01T05:34:00.771Z,1.00
2023-02-01T05:36:27.693Z,0.88
2023-02-01T05:38:54.915Z,1.05
2023-02-01T05:41:22.114Z,1.10
2023-02-01T05:43:49.155Z,1.13
2023-02-01T05:46:16.378Z,1.00
2023-02-01T05:48:43.737Z,1.50
2023-02-01T05:51:13.297Z,1.27
2023-02-01T05:53:40.310Z,1.15
2023-02-01T05:56:07.937Z,1.88
2023-02-01T05:58:35.788Z,1.90
2023-02-01T06:01:06.754Z,1.70
2023-02-01T06:03:36.462Z,1.17
2023-02-01T06:06:11.415Z,2.17
2023-02-01T06:08:42.078Z,1.58
2023-02-01T06:11:17.453Z,1.88
2023-02-01T06:13:54.812Z,1.42
2023-02-01T06:16:23.981Z,1.17
2023-02-01T06:18:51.521Z,0.57
2023-02-01T06:21:24.657Z,0.93
2023-02-01T06:23:53.528Z,1.70
2023-02-01T06:26:21.313Z,1.08
2023-02-01T06:28:48.610Z,1.08
2023-02-01T06:31:16.532Z,5.22
2023-02-01T06:33:44.419Z,5.65
2023-02-01T06:36:13.751Z,4.82
2023-02-01T06:38:43.853Z,3.83
2023-02-01T06:41:16.076Z,1.50
2023-02-01T06:43:52.461Z,1.55
2023-02-01T06:46:22.778Z,1.65
2023-02-01T06:48:52.450Z,1.08
2023-02-01T06:51:27.501Z,2.00
2023-02-01T06:53:55.074Z,1.30
2023-02-01T06:56:22.698Z,1.65
2023-02-01T06:58:50.211Z,1.98
2023-02-01T07:01:17.777Z,1.23
2023-02-01T07:03:49.052Z,2.05
2023-02-01T07:06:19.679Z,1.00
2023-02-01T07:08:49.602Z,1.98
2023-02-01T07:11:18.744Z,1.55
2023-02-01T07:13:46.292Z,1.15
2023-02-01T07:16:16.108Z,1.90
2023-02-01T07:18:45.223Z,5.05
2023-02-01T07:21:12.755Z,2.58
2023-02-01T07:23:40.316Z,3.17
2023-02-01T07:26:08.587Z,2.28
2023-02-01T07:28:37.058Z,2.45
2023-02-01T07:31:13.056Z,2.35
2023-02-01T07:33:40.605Z,1.52
2023-02-01T07:36:11.538Z,2.00
2023-02-01T07:38:38.874Z,1.48
2023-02-01T07:41:06.763Z,2.30
2023-02-01T07:43:35.832Z,2.08
2023-02-01T07:46:05.140Z,2.40
2023-02-01T07:48:32.722Z,3.10
2023-02-01T07:51:00.102Z,1.80
2023-02-01T07:53:27.547Z,2.38
2023-02-01T07:55:54.913Z,2.55
2023-02-01T07:58:45.462Z,2.63
2023-02-01T08:01:36.008Z,5.72
2023-02-01T08:04:23.237Z,2.85
2023-02-01T08:07:13.329Z,2.67
2023-02-01T08:10:07.979Z,3.42
2023-02-01T08:12:39.882Z,2.67
2023-02-01T08:15:10.797Z,1.48
2023-02-01T08:17:38.304Z,2.22
2023-02-01T08:20:06.329Z,2.70
2023-02-01T08:22:36.013Z,2.33
2023-02-01T08:25:03.315Z,2.38
2023-02-01T08:27:39.872Z,2.00
2023-02-01T08:30:11.219Z,1.90
2023-02-01T08:36:40.483Z,2.70
2023-02-01T08:39:10.108Z,1.60
2023-02-01T08:41:43.069Z,3.22
2023-02-01T08:44:13.449Z,1.35
2023-02-01T08:49:17.119Z,2.15
2023-02-01T08:51:50.776Z,2.08
2023-02-01T08:54:18.106Z,1.83
2023-02-01T08:56:45.563Z,2.10
2023-02-01T08:59:13.503Z,4.13
2023-02-01T09:01:46.284Z,7.00
2023-02-01T09:04:18.062Z,6.38
2023-02-01T09:06:59.339Z,7.10
2023-02-01T09:09:30.981Z,36.05
2023-02-01T09:11:58.595Z,16.13
2023-02-01T09:14:31.157Z,30.27
2023-02-01T09:16:59.223Z,12.48
2023-02-01T09:19:27.405Z,15.45
2023-02-01T09:21:54.953Z,5.63
2023-02-01T09:24:22.136Z,2.65
2023-02-01T09:26:50.091Z,7.53
2023-02-01T09:29:23.768Z,3.50
2023-02-01T09:32:04.046Z,3.35
2023-02-01T09:34:41.084Z,8.13
2023-02-01T09:37:23.281Z,3.67
2023-02-01T09:39:54.112Z,8.93
2023-02-01T09:42:41.185Z,6.65
2023-02-01T09:45:47.313Z,8.35
2023-02-01T09:48:25.044Z,7.95
2023-02-01T09:51:03.742Z,12.02
2023-02-01T09:53:40.772Z,15.77
2023-02-01T09:56:15.391Z,6.63
2023-02-01T10:01:50.739Z,5.95
2023-02-01T10:04:24.942Z,2.63
2023-02-01T10:07:29.121Z,3.55
2023-02-01T10:10:09.314Z,2.33
2023-02-01T10:13:07.433Z,3.10
2023-02-01T10:16:00.547Z,2.17
2023-02-01T10:18:57.327Z,3.13
2023-02-01T10:21:47.214Z,3.22
2023-02-01T10:24:37.203Z,3.42
2023-02-01T10:27:15.435Z,3.53
2023-02-01T10:30:01.824Z,3.75
2023-02-01T10:32:37.969Z,1.80
2023-02-01T10:36:04.662Z,4.85
2023-02-01T10:39:10.280Z,3.10
2023-02-01T10:41:44.750Z,2.50
2023-02-01T10:44:18.904Z,2.38
2023-02-01T10:46:53.991Z,2.72
2023-02-01T10:49:33.558Z,1.85
2023-02-01T10:52:11.580Z,3.63
2023-02-01T10:54:43.069Z,3.20
2023-02-01T10:57:30.781Z,3.10
2023-02-01T10:59:57.742Z,2.45
2023-02-01T11:02:35.661Z,2.90
2023-02-01T11:05:06.357Z,7.45
2023-02-01T11:07:34.042Z,2.33
2023-02-01T11:10:05.486Z,2.25
2023-02-01T11:12:38.344Z,2.78
2023-02-01T11:15:20.791Z,2.88
2023-02-01T11:20:22.333Z,1.90
2023-02-01T11:22:58.014Z,2.10
2023-02-01T11:25:26.874Z,4.85
2023-02-01T11:27:56.848Z,1.88
2023-02-01T11:30:41.315Z,2.30
2023-02-01T11:33:29.225Z,2.10
2023-02-01T11:36:00.040Z,1.63
2023-02-01T11:38:33.539Z,4.63
2023-02-01T11:41:23.894Z,2.08
2023-02-01T11:44:06.917Z,2.40
2023-02-01T11:46:35.907Z,2.95
2023-02-01T11:49:23.879Z,3.38
2023-02-01T11:52:14.144Z,4.63
2023-02-01T11:54:53.496Z,4.05
2023-02-01T11:57:37.128Z,2.95
2023-02-01T12:00:20.705Z,2.17
2023-02-01T12:03:46.807Z,2.85
2023-02-01T12:07:18.671Z,2.30
2023-02-01T12:10:18.097Z,2.55
2023-02-01T12:13:37.411Z,1.48
2023-02-01T12:16:50.294Z,1.70
2023-02-01T12:19:51.711Z,0.98
2023-02-01T12:22:40.875Z,1.15
2023-02-01T12:25:39.178Z,0.93
2023-02-01T12:28:33.130Z,1.40
2023-02-01T12:31:12.084Z,2.58
2023-02-01T12:34:11.784Z,2.83
2023-02-01T12:36:58.987Z,1.00
2023-02-01T12:39:42.147Z,0.50
2023-02-01T12:42:52.259Z,0.40
2023-02-01T12:45:36.695Z,0.50
2023-02-01T12:48:42.985Z,0.88
2023-02-01T12:51:30.126Z,5.72
2023-02-01T12:54:07.212Z,1.10
2023-02-01T12:56:57.962Z,0.88
2023-02-01T12:59:51.286Z,1.40
2023-02-01T13:02:27.508Z,1.38
2023-02-01T13:05:21.361Z,1.70
2023-02-01T13:08:11.283Z,1.10
2023-02-01T13:11:05.575Z,1.10
2023-02-01T13:13:57.331Z,1.67
2023-02-01T13:16:41.046Z,1.67
2023-02-01T13:19:31.508Z,0.77
2023-02-01T13:22:08.860Z,0.68
2023-02-01T13:24:48.227Z,0.40
2023-02-01T13:27:17.137Z,0.73
2023-02-01T13:30:01.905Z,0.43
2023-02-01T13:33:52.683Z,4.68
2023-02-01T13:36:34.469Z,2.38
2023-02-01T13:39:38.718Z,0.65
2023-02-01T13:42:20.908Z,3.00
2023-02-01T13:44:56.767Z,3.92
2023-02-01T13:47:33.016Z,6.18
2023-02-01T13:50:04.586Z,1.13
2023-02-01T13:52:44.913Z,1.05
2023-02-01T13:55:20.909Z,1.08
2023-02-01T13:57:50.911Z,0.85
2023-02-01T14:00:25.648Z,0.75
2023-02-01T14:03:02.135Z,0.65
2023-02-01T14:08:15.739Z,0.90
2023-02-01T14:10:50.720Z,1.15
2023-02-01T14:13:38.948Z,1.55
2023-02-01T14:16:06.909Z,0.82
2023-02-01T14:18:43.090Z,1.00
2023-02-01T14:21:22.969Z,1.23
2023-02-01T14:23:55.104Z,1.40
2023-02-01T14:26:27.243Z,1.60
2023-02-01T14:29:02.279Z,1.60
2023-02-01T14:31:35.879Z,1.23
2023-02-01T14:34:26.179Z,2.00
2023-02-01T14:37:09.508Z,2.08
2023-02-01T14:39:36.991Z,2.97
2023-02-01T14:42:20.074Z,1.42
2023-02-01T14:44:58.957Z,2.55
2023-02-01T14:47:31.702Z,2.05
2023-02-01T14:50:11.360Z,1.75
2023-02-01T14:55:34.989Z,2.05
2023-02-01T14:58:06.375Z,1.70
2023-02-01T15:00:34.285Z,2.25
2023-02-01T15:03:24.489Z,4.80
2023-02-01T15:06:01.790Z,3.38
2023-02-01T15:08:33.300Z,2.45
2023-02-01T15:11:07.555Z,2.50
2023-02-01T15:13:38.278Z,2.88
2023-02-01T15:16:45.468Z,10.02
2023-02-01T15:19:25.360Z,3.03
2023-02-01T15:21:55.434Z,3.55
2023-02-01T15:24:32.673Z,2.15
2023-02-01T15:27:07.719Z,2.90
2023-02-01T15:29:35.106Z,2.15
2023-02-01T15:32:02.389Z,2.97
2023-02-01T15:34:50.889Z,2.30
2023-02-01T15:37:21.689Z,6.57
2023-02-01T15:40:10.748Z,3.05
2023-02-01T15:42:54.613Z,2.75
2023-02-01T15:45:30.337Z,2.05
2023-02-01T15:47:59.102Z,2.30
2023-02-01T15:50:28.308Z,1.63
2023-02-01T15:52:59.281Z,2.47
2023-02-01T15:55:42.224Z,3.28
2023-02-01T15:58:22.739Z,4.00
2023-02-01T16:01:05.561Z,4.25
2023-02-01T16:03:42.336Z,5.65
2023-02-01T16:06:28.111Z,5.72
2023-02-01T16:09:01.347Z,3.97
2023-02-01T16:11:34.570Z,4.25
2023-02-01T16:14:02.490Z,5.45
2023-02-01T16:16:30.675Z,4.45
2023-02-01T16:18:57.999Z,6.65
2023-02-01T16:21:25.342Z,5.95
2023-02-01T16:23:52.848Z,6.75
2023-02-01T16:26:21.210Z,4.15
2023-02-01T16:28:48.879Z,3.58
2023-02-01T16:31:24.426Z,2.97
2023-02-01T16:33:52.383Z,4.05
2023-02-01T16:36:20.152Z,3.13
2023-02-01T16:38:51.663Z,3.47
2023-02-01T16:41:21.142Z,2.78
2023-02-01T16:43:52.297Z,2.22
2023-02-01T16:46:29.146Z,3.38
2023-02-01T16:48:59.331Z,3.92
2023-02-01T16:51:29.578Z,2.60
2023-02-01T16:53:57.655Z,2.50
2023-02-01T16:56:34.250Z,2.45
2023-02-01T17:01:31.695Z,2.92
2023-02-01T17:04:04.495Z,4.70
2023-02-01T17:06:33.616Z,5.25
2023-02-01T17:09:03.393Z,6.45
2023-02-01T17:11:31.159Z,5.82
2023-02-01T17:14:10.731Z,5.80
2023-02-01T17:16:38.291Z,5.78
2023-02-01T17:19:11.420Z,8.50
2023-02-01T17:21:45.405Z,5.07
2023-02-01T17:24:19.617Z,5.05
2023-02-01T17:26:47.601Z,4.25
2023-02-01T17:29:15.281Z,4.70
2023-02-01T17:31:51.228Z,9.50
2023-02-01T17:34:43.314Z,7.47
2023-02-01T17:37:40.261Z,6.40
2023-02-01T17:40:19.960Z,5.97
2023-02-01T17:42:47.542Z,12.10
2023-02-01T17:45:28.642Z,7.32
2023-02-01T17:47:56.246Z,12.20
2023-02-01T17:50:24.138Z,7.20
2023-02-01T17:52:51.216Z,11.07
2023-02-01T17:55:24.873Z,5.03
2023-02-01T17:57:52.945Z,5.35
2023-02-01T18:00:23.850Z,6.63
2023-02-01T18:02:53.589Z,4.97
2023-02-01T18:05:44.706Z,3.88
2023-02-01T18:08:14.171Z,3.85
2023-02-01T18:10:52.741Z,4.60
2023-02-01T18:13:22.010Z,4.70
2023-02-01T18:15:49.223Z,12.35
2023-02-01T18:18:31.647Z,5.28
2023-02-01T18:21:01.637Z,4.38
2023-02-01T18:23:28.826Z,6.10
2023-02-01T18:25:55.863Z,8.25
2023-02-01T18:28:23.053Z,4.97
2023-02-01T18:30:53.834Z,7.65
2023-02-01T18:33:22.967Z,18.73
2023-02-01T18:35:52.534Z,11.38
2023-02-01T18:38:19.533Z,15.52
2023-02-01T18:40:51.143Z,8.68
2023-02-01T18:43:18.940Z,4.30
2023-02-01T18:45:47.570Z,3.58
2023-02-01T18:48:16.448Z,6.53
2023-02-01T18:50:45.698Z,6.18
2023-02-01T18:53:21.159Z,6.00
2023-02-01T18:55:52.129Z,4.20
2023-02-01T18:58:29.268Z,4.13
2023-02-01T19:03:28.775Z,7.75
2023-02-01T19:05:58.244Z,4.03
2023-02-01T19:08:25.885Z,3.97
2023-02-01T19:10:57.252Z,4.00
2023-02-01T19:13:26.723Z,4.20
2023-02-01T19:15:54.039Z,2.65
2023-02-01T19:18:21.607Z,2.08
2023-02-01T19:20:52.719Z,2.00
2023-02-01T19:23:24.424Z,2.90
2023-02-01T19:25:51.343Z,2.22
2023-02-01T19:28:20.981Z,3.75
2023-02-01T19:30:48.230Z,4.55
2023-02-01T19:33:17.272Z,5.05
2023-02-01T19:35:45.795Z,3.42
2023-02-01T19:38:12.812Z,2.78
2023-02-01T19:40:40.959Z,2.97
2023-02-01T19:43:10.547Z,2.50
2023-02-01T19:45:38.048Z,2.38
2023-02-01T19:48:08.766Z,1.73
2023-02-01T19:50:37.259Z,2.15
2023-02-01T19:53:05.798Z,2.30
2023-02-01T19:55:33.119Z,2.15
2023-02-01T19:58:07.238Z,1.95
2023-02-01T20:00:37.208Z,1.88
2023-02-01T20:03:04.936Z,2.05
2023-02-01T20:05:36.474Z,2.22
2023-02-01T20:08:13.193Z,2.20
2023-02-01T20:10:46.078Z,3.88
2023-02-01T20:13:14.231Z,2.85
2023-02-01T20:15:46.677Z,2.90
2023-02-01T20:18:13.793Z,3.80
2023-02-01T20:20:44.649Z,3.17
2023-02-01T20:23:13.897Z,3.53
2023-02-01T20:25:41.856Z,2.65
2023-02-01T20:28:08.915Z,2.15
2023-02-01T20:30:38.715Z,1.70
2023-02-01T20:33:05.773Z,2.13
2023-02-01T20:35:33.067Z,2.17
2023-02-01T20:38:01.773Z,2.55
2023-02-01T20:40:29.530Z,2.10
2023-02-01T20:42:59.545Z,3.33
2023-02-01T20:45:30.190Z,3.28
2023-02-01T20:47:57.601Z,3.10
2023-02-01T20:50:25.325Z,2.28
2023-02-01T20:52:55.842Z,3.17
2023-02-01T20:55:25.233Z,2.85
2023-02-01T20:57:55.582Z,2.47
2023-02-01T21:00:23.092Z,2.67
2023-02-01T21:02:51.304Z,2.20
2023-02-01T21:05:19.905Z,2.90
2023-02-01T21:07:49.528Z,2.15
2023-02-01T21:10:22.444Z,3.30
2023-02-01T21:13:04.781Z,1.83
2023-02-01T21:15:36.315Z,2.03
2023-02-01T21:18:05.277Z,2.47
2023-02-01T21:20:34.229Z,2.38
2023-02-01T21:23:04.174Z,1.88
2023-02-01T21:25:31.461Z,1.25
2023-02-01T21:27:59.835Z,1.35
2023-02-01T21:30:32.039Z,1.90
2023-02-01T21:33:00.976Z,2.72
2023-02-01T21:35:28.888Z,2.80
2023-02-01T21:37:58.373Z,2.10
2023-02-01T21:40:27.814Z,1.88
2023-02-01T21:42:57.068Z,1.88
2023-02-01T21:45:27.015Z,2.42
2023-02-01T21:47:57.344Z,2.78
2023-02-01T21:50:24.886Z,3.00
2023-02-01T21:52:51.943Z,2.92
2023-02-01T21:55:19.205Z,2.50
2023-02-01T21:57:53.756Z,2.20
2023-02-01T22:00:21.143Z,1.50
2023-02-01T22:02:54.562Z,1.90
2023-02-01T22:05:26.521Z,1.88
2023-02-01T22:08:18.647Z,1.73
2023-02-01T22:10:49.707Z,1.65
2023-02-01T22:13:23.435Z,2.67
2023-02-01T22:15:52.410Z,1.33
2023-02-01T22:18:29.964Z,1.48
2023-02-01T22:21:10.348Z,2.25
2023-02-01T22:23:37.584Z,1.88
2023-02-01T22:26:12.927Z,1.75
2023-02-01T22:28:47.281Z,1.85
2023-02-01T22:31:29.161Z,1.45
2023-02-01T22:34:01.329Z,1.38
2023-02-01T22:36:31.642Z,1.70
2023-02-01T22:39:01.782Z,1.63
2023-02-01T22:41:34.511Z,1.70
2023-02-01T22:44:01.599Z,2.50
2023-02-01T22:46:49.859Z,1.60
2023-02-01T22:49:33.375Z,1.45
2023-02-01T22:52:03.768Z,1.98
2023-02-01T22:54:39.015Z,2.40
2023-02-01T22:57:09.176Z,1.88
2023-02-01T22:59:41.270Z,1.88
2023-02-01T23:02:08.535Z,3.33
2023-02-01T23:04:44.493Z,2.78
2023-02-01T23:07:20.088Z,2.03
2023-02-01T23:09:54.260Z,2.20
2023-02-01T23:12:39.157Z,1.83
2023-02-01T23:15:18.089Z,1.88
2023-02-01T23:17:58.456Z,1.80
2023-02-01T23:20:33.351Z,2.53
2023-02-01T23:23:04.874Z,2.38
2023-02-01T23:25:51.921Z,1.48
2023-02-01T23:28:33.685Z,1.33
2023-02-01T23:31:10.469Z,2.03
2023-02-01T23:33:53.373Z,1.60
2023-02-01T23:36:34.241Z,1.38
2023-02-01T23:39:15.665Z,1.35
2023-02-01T23:41:47.147Z,2.17
2023-02-01T23:44:16.881Z,1.30
2023-02-01T23:46:50.642Z,1.65
2023-02-01T23:49:25.802Z,1.65
2023-02-01T23:52:00.769Z,1.20
2023-02-01T23:54:42.101Z,1.40
2023-02-01T23:57:15.243Z,2.25
2023-02-01T23:59:51.495Z,1.80
